sensor_id;sensor_type;location;lat;lon;timestamp;P1;durP1;ratioP1;P2;durP2;ratioP2
19193;SDS011;9729;52.296;13.260;2023-03-04T00:01:42;64.53;;;28.00;;
19193;SDS011;9729;52.296;13.260;2023-03-04T00:04:09;63.77;;;26.33;;
19193;SDS011;9729;52.296;13.260;2023-03-04T00:06:36;68.63;;;26.83;;
19193;SDS011;9729;52.296;13.260;2023-03-04T00:09:03;67.70;;;27.60;;
19193;SDS011;9729;52.296;13.260;2023-03-04T00:11:29;62.53;;;26.87;;
19193;SDS011;9729;52.296;13.260;2023-03-04T00:13:56;62.50;;;26.30;;
19193;SDS011;9729;52.296;13.260;2023-03-04T00:16:23;65.07;;;27.80;;
19193;SDS011;9729;52.296;13.260;2023-03-04T00:18:52;66.10;;;27.63;;
19193;SDS011;9729;52.296;13.260;2023-03-04T00:21:18;68.60;;;28.83;;
19193;SDS011;9729;52.296;13.260;2023-03-04T00:23:47;70.23;;;28.97;;
19193;SDS011;9729;52.296;13.260;2023-03-04T00:26:14;65.37;;;29.80;;
19193;SDS011;9729;52.296;13.260;2023-03-04T00:28:40;62.93;;;26.63;;
19193;SDS011;9729;52.296;13.260;2023-03-04T00:31:07;67.43;;;27.63;;
19193;SDS011;9729;52.296;13.260;2023-03-04T00:33:34;73.07;;;26.63;;
19193;SDS011;9729;52.296;13.260;2023-03-04T00:36:01;78.83;;;30.40;;
19193;SDS011;9729;52.296;13.260;2023-03-04T00:38:27;71.13;;;28.93;;
19193;SDS011;9729;52.296;13.260;2023-03-04T00:40:55;72.37;;;29.40;;
19193;SDS011;9729;52.296;13.260;2023-03-04T00:43:22;68.90;;;27.57;;
19193;SDS011;9729;52.296;13.260;2023-03-04T00:45:48;72.03;;;30.07;;
19193;SDS011;9729;52.296;13.260;2023-03-04T00:48:15;68.87;;;29.53;;
19193;SDS011;9729;52.296;13.260;2023-03-04T00:50:41;74.73;;;29.63;;
19193;SDS011;9729;52.296;13.260;2023-03-04T00:53:08;71.50;;;26.80;;
19193;SDS011;9729;52.296;13.260;2023-03-04T00:55:35;69.27;;;27.20;;
19193;SDS011;9729;52.296;13.260;2023-03-04T00:58:03;64.70;;;26.23;;
19193;SDS011;9729;52.296;13.260;2023-03-04T01:00:29;63.23;;;25.27;;
19193;SDS011;9729;52.296;13.260;2023-03-04T01:02:56;62.97;;;27.37;;
19193;SDS011;9729;52.296;13.260;2023-03-04T01:05:23;60.50;;;26.13;;
19193;SDS011;9729;52.296;13.260;2023-03-04T01:07:49;50.67;;;23.13;;
19193;SDS011;9729;52.296;13.260;2023-03-04T01:10:16;60.07;;;24.17;;
19193;SDS011;9729;52.296;13.260;2023-03-04T01:12:43;53.50;;;21.77;;
19193;SDS011;9729;52.296;13.260;2023-03-04T01:15:11;42.03;;;17.30;;
19193;SDS011;9729;52.296;13.260;2023-03-04T01:17:39;47.43;;;19.73;;
19193;SDS011;9729;52.296;13.260;2023-03-04T01:20:06;46.80;;;19.50;;
19193;SDS011;9729;52.296;13.260;2023-03-04T01:22:34;50.40;;;20.87;;
19193;SDS011;9729;52.296;13.260;2023-03-04T01:25:00;43.97;;;17.17;;
19193;SDS011;9729;52.296;13.260;2023-03-04T01:27:27;55.37;;;18.57;;
19193;SDS011;9729;52.296;13.260;2023-03-04T01:29:53;52.40;;;17.80;;
19193;SDS011;9729;52.296;13.260;2023-03-04T01:32:21;38.63;;;16.47;;
19193;SDS011;9729;52.296;13.260;2023-03-04T01:34:47;45.60;;;15.97;;
19193;SDS011;9729;52.296;13.260;2023-03-04T01:37:13;49.87;;;17.60;;
19193;SDS011;9729;52.296;13.260;2023-03-04T01:39:43;42.20;;;15.47;;
19193;SDS011;9729;52.296;13.260;2023-03-04T01:42:11;44.07;;;15.10;;
19193;SDS011;9729;52.296;13.260;2023-03-04T01:44:42;46.43;;;15.50;;
19193;SDS011;9729;52.296;13.260;2023-03-04T01:47:09;44.53;;;15.00;;
19193;SDS011;9729;52.296;13.260;2023-03-04T01:49:37;31.20;;;15.37;;
19193;SDS011;9729;52.296;13.260;2023-03-04T01:52:03;45.70;;;15.77;;
19193;SDS011;9729;52.296;13.260;2023-03-04T01:54:30;44.13;;;18.47;;
19193;SDS011;9729;52.296;13.260;2023-03-04T01:56:57;36.87;;;14.83;;
19193;SDS011;9729;52.296;13.260;2023-03-04T01:59:24;48.40;;;16.63;;
19193;SDS011;9729;52.296;13.260;2023-03-04T02:01:53;47.70;;;15.60;;
19193;SDS011;9729;52.296;13.260;2023-03-04T02:04:21;36.47;;;11.80;;
19193;SDS011;9729;52.296;13.260;2023-03-04T02:06:50;48.03;;;15.63;;
19193;SDS011;9729;52.296;13.260;2023-03-04T02:09:17;47.73;;;16.17;;
19193;SDS011;9729;52.296;13.260;2023-03-04T02:11:44;42.33;;;14.27;;
19193;SDS011;9729;52.296;13.260;2023-03-04T02:14:12;44.43;;;13.70;;
19193;SDS011;9729;52.296;13.260;2023-03-04T02:16:39;39.60;;;12.57;;
19193;SDS011;9729;52.296;13.260;2023-03-04T02:19:07;46.53;;;13.03;;
19193;SDS011;9729;52.296;13.260;2023-03-04T02:21:36;43.27;;;12.90;;
19193;SDS011;9729;52.296;13.260;2023-03-04T02:24:07;37.67;;;12.47;;
19193;SDS011;9729;52.296;13.260;2023-03-04T02:26:37;40.27;;;13.30;;
19193;SDS011;9729;52.296;13.260;2023-03-04T02:29:05;35.00;;;11.67;;
19193;SDS011;9729;52.296;13.260;2023-03-04T02:31:32;35.53;;;12.20;;
19193;SDS011;9729;52.296;13.260;2023-03-04T02:34:01;31.83;;;11.73;;
19193;SDS011;9729;52.296;13.260;2023-03-04T02:36:29;42.50;;;11.67;;
19193;SDS011;9729;52.296;13.260;2023-03-04T02:39:00;35.17;;;12.93;;
19193;SDS011;9729;52.296;13.260;2023-03-04T02:41:27;42.90;;;12.23;;
19193;SDS011;9729;52.296;13.260;2023-03-04T02:43:56;40.30;;;13.07;;
19193;SDS011;9729;52.296;13.260;2023-03-04T02:46:22;33.40;;;10.97;;
19193;SDS011;9729;52.296;13.260;2023-03-04T02:48:48;35.77;;;10.97;;
19193;SDS011;9729;52.296;13.260;2023-03-04T02:51:15;34.77;;;11.33;;
19193;SDS011;9729;52.296;13.260;2023-03-04T02:53:42;37.90;;;11.03;;
19193;SDS011;9729;52.296;13.260;2023-03-04T02:56:08;40.00;;;11.20;;
19193;SDS011;9729;52.296;13.260;2023-03-04T02:58:34;22.43;;;8.93;;
19193;SDS011;9729;52.296;13.260;2023-03-04T03:01:03;36.70;;;10.67;;
19193;SDS011;9729;52.296;13.260;2023-03-04T03:03:30;26.17;;;10.47;;
19193;SDS011;9729;52.296;13.260;2023-03-04T03:05:57;35.23;;;10.40;;
19193;SDS011;9729;52.296;13.260;2023-03-04T03:08:24;33.10;;;10.97;;
19193;SDS011;9729;52.296;13.260;2023-03-04T03:10:50;35.97;;;11.57;;
19193;SDS011;9729;52.296;13.260;2023-03-04T03:13:16;40.40;;;10.60;;
19193;SDS011;9729;52.296;13.260;2023-03-04T03:15:43;30.60;;;10.83;;
19193;SDS011;9729;52.296;13.260;2023-03-04T03:18:11;35.50;;;9.70;;
19193;SDS011;9729;52.296;13.260;2023-03-04T03:20:38;33.00;;;9.87;;
19193;SDS011;9729;52.296;13.260;2023-03-04T03:23:04;37.20;;;9.40;;
19193;SDS011;9729;52.296;13.260;2023-03-04T03:25:30;27.60;;;9.00;;
19193;SDS011;9729;52.296;13.260;2023-03-04T03:27:58;29.97;;;9.93;;
19193;SDS011;9729;52.296;13.260;2023-03-04T03:30:25;37.33;;;10.10;;
19193;SDS011;9729;52.296;13.260;2023-03-04T03:32:51;29.63;;;10.03;;
19193;SDS011;9729;52.296;13.260;2023-03-04T03:35:19;24.50;;;9.33;;
19193;SDS011;9729;52.296;13.260;2023-03-04T03:37:45;38.37;;;10.57;;
19193;SDS011;9729;52.296;13.260;2023-03-04T03:40:13;40.37;;;10.43;;
19193;SDS011;9729;52.296;13.260;2023-03-04T03:42:39;37.33;;;10.83;;
19193;SDS011;9729;52.296;13.260;2023-03-04T03:45:06;45.53;;;9.53;;
19193;SDS011;9729;52.296;13.260;2023-03-04T03:47:33;23.60;;;8.87;;
19193;SDS011;9729;52.296;13.260;2023-03-04T03:50:02;28.00;;;8.30;;
19193;SDS011;9729;52.296;13.260;2023-03-04T03:52:30;34.60;;;9.93;;
19193;SDS011;9729;52.296;13.260;2023-03-04T03:54:57;31.67;;;9.50;;
19193;SDS011;9729;52.296;13.260;2023-03-04T03:57:25;36.53;;;9.27;;
19193;SDS011;9729;52.296;13.260;2023-03-04T03:59:52;28.90;;;9.07;;
19193;SDS011;9729;52.296;13.260;2023-03-04T04:02:19;32.57;;;9.07;;
19193;SDS011;9729;52.296;13.260;2023-03-04T04:04:46;38.03;;;9.50;;
19193;SDS011;9729;52.296;13.260;2023-03-04T04:07:12;32.27;;;9.07;;
19193;SDS011;9729;52.296;13.260;2023-03-04T04:09:40;26.73;;;8.07;;
19193;SDS011;9729;52.296;13.260;2023-03-04T04:12:06;28.83;;;9.07;;
19193;SDS011;9729;52.296;13.260;2023-03-04T04:14:33;31.93;;;8.00;;
19193;SDS011;9729;52.296;13.260;2023-03-04T04:17:02;26.40;;;8.33;;
19193;SDS011;9729;52.296;13.260;2023-03-04T04:19:29;31.70;;;9.13;;
19193;SDS011;9729;52.296;13.260;2023-03-04T04:21:55;30.43;;;10.50;;
19193;SDS011;9729;52.296;13.260;2023-03-04T04:24:22;23.83;;;7.73;;
19193;SDS011;9729;52.296;13.260;2023-03-04T04:26:50;36.03;;;9.00;;
19193;SDS011;9729;52.296;13.260;2023-03-04T04:29:16;33.70;;;9.50;;
19193;SDS011;9729;52.296;13.260;2023-03-04T04:31:42;34.27;;;7.53;;
19193;SDS011;9729;52.296;13.260;2023-03-04T04:34:09;18.13;;;6.43;;
19193;SDS011;9729;52.296;13.260;2023-03-04T04:36:35;23.80;;;6.70;;
19193;SDS011;9729;52.296;13.260;2023-03-04T04:39:02;22.70;;;6.90;;
19193;SDS011;9729;52.296;13.260;2023-03-04T04:41:29;21.10;;;7.17;;
19193;SDS011;9729;52.296;13.260;2023-03-04T04:43:58;33.40;;;6.93;;
19193;SDS011;9729;52.296;13.260;2023-03-04T04:46:25;27.10;;;6.80;;
19193;SDS011;9729;52.296;13.260;2023-03-04T04:48:51;33.63;;;7.13;;
19193;SDS011;9729;52.296;13.260;2023-03-04T04:51:18;26.67;;;6.37;;
19193;SDS011;9729;52.296;13.260;2023-03-04T04:53:44;28.30;;;6.40;;
19193;SDS011;9729;52.296;13.260;2023-03-04T04:56:11;29.47;;;6.87;;
19193;SDS011;9729;52.296;13.260;2023-03-04T04:58:39;24.73;;;5.70;;
19193;SDS011;9729;52.296;13.260;2023-03-04T05:01:07;19.73;;;5.87;;
19193;SDS011;9729;52.296;13.260;2023-03-04T05:03:35;30.63;;;5.70;;
19193;SDS011;9729;52.296;13.260;2023-03-04T05:06:03;28.27;;;5.90;;
19193;SDS011;9729;52.296;13.260;2023-03-04T05:08:30;32.23;;;6.07;;
19193;SDS011;9729;52.296;13.260;2023-03-04T05:10:57;23.13;;;5.50;;
19193;SDS011;9729;52.296;13.260;2023-03-04T05:13:24;24.37;;;5.53;;
19193;SDS011;9729;52.296;13.260;2023-03-04T05:15:50;21.93;;;6.27;;
19193;SDS011;9729;52.296;13.260;2023-03-04T05:18:18;29.63;;;6.43;;
19193;SDS011;9729;52.296;13.260;2023-03-04T05:20:48;30.70;;;6.07;;
19193;SDS011;9729;52.296;13.260;2023-03-04T05:23:17;31.00;;;4.83;;
19193;SDS011;9729;52.296;13.260;2023-03-04T05:25:43;32.70;;;6.97;;
19193;SDS011;9729;52.296;13.260;2023-03-04T05:28:09;30.50;;;6.57;;
19193;SDS011;9729;52.296;13.260;2023-03-04T05:30:37;17.07;;;6.90;;
19193;SDS011;9729;52.296;13.260;2023-03-04T05:33:03;19.00;;;5.90;;
19193;SDS011;9729;52.296;13.260;2023-03-04T05:35:31;16.33;;;5.10;;
19193;SDS011;9729;52.296;13.260;2023-03-04T05:37:57;25.77;;;6.53;;
19193;SDS011;9729;52.296;13.260;2023-03-04T05:40:23;25.53;;;4.90;;
19193;SDS011;9729;52.296;13.260;2023-03-04T05:42:50;18.90;;;5.23;;
19193;SDS011;9729;52.296;13.260;2023-03-04T05:45:17;19.13;;;5.27;;
19193;SDS011;9729;52.296;13.260;2023-03-04T05:47:44;23.17;;;5.37;;
19193;SDS011;9729;52.296;13.260;2023-03-04T05:50:11;25.10;;;6.10;;
19193;SDS011;9729;52.296;13.260;2023-03-04T05:52:38;20.27;;;6.30;;
19193;SDS011;9729;52.296;13.260;2023-03-04T05:55:05;18.27;;;4.80;;
19193;SDS011;9729;52.296;13.260;2023-03-04T05:57:32;17.57;;;4.93;;
19193;SDS011;9729;52.296;13.260;2023-03-04T05:59:58;21.77;;;5.07;;
19193;SDS011;9729;52.296;13.260;2023-03-04T06:02:25;34.23;;;7.20;;
19193;SDS011;9729;52.296;13.260;2023-03-04T06:04:51;23.10;;;5.10;;
19193;SDS011;9729;52.296;13.260;2023-03-04T06:07:18;19.93;;;4.60;;
19193;SDS011;9729;52.296;13.260;2023-03-04T06:09:46;20.23;;;4.67;;
19193;SDS011;9729;52.296;13.260;2023-03-04T06:12:13;24.57;;;4.70;;
19193;SDS011;9729;52.296;13.260;2023-03-04T06:14:39;15.77;;;4.77;;
19193;SDS011;9729;52.296;13.260;2023-03-04T06:17:05;26.97;;;5.17;;
19193;SDS011;9729;52.296;13.260;2023-03-04T06:19:32;23.73;;;4.23;;
19193;SDS011;9729;52.296;13.260;2023-03-04T06:21:58;21.97;;;5.03;;
19193;SDS011;9729;52.296;13.260;2023-03-04T06:24:25;22.13;;;5.43;;
19193;SDS011;9729;52.296;13.260;2023-03-04T06:26:54;23.37;;;5.10;;
19193;SDS011;9729;52.296;13.260;2023-03-04T06:29:22;25.13;;;5.00;;
19193;SDS011;9729;52.296;13.260;2023-03-04T06:31:49;25.27;;;4.83;;
19193;SDS011;9729;52.296;13.260;2023-03-04T06:34:15;30.60;;;5.20;;
19193;SDS011;9729;52.296;13.260;2023-03-04T06:36:41;18.13;;;4.70;;
19193;SDS011;9729;52.296;13.260;2023-03-04T06:39:08;10.97;;;4.67;;
19193;SDS011;9729;52.296;13.260;2023-03-04T06:41:34;16.73;;;4.13;;
19193;SDS011;9729;52.296;13.260;2023-03-04T06:44:02;17.03;;;4.80;;
19193;SDS011;9729;52.296;13.260;2023-03-04T06:46:29;27.13;;;4.70;;
19193;SDS011;9729;52.296;13.260;2023-03-04T06:48:55;15.00;;;4.63;;
19193;SDS011;9729;52.296;13.260;2023-03-04T06:51:22;16.27;;;3.63;;
19193;SDS011;9729;52.296;13.260;2023-03-04T06:53:48;9.37;;;3.67;;
19193;SDS011;9729;52.296;13.260;2023-03-04T06:56:15;20.73;;;4.27;;
19193;SDS011;9729;52.296;13.260;2023-03-04T06:58:41;16.00;;;4.20;;
19193;SDS011;9729;52.296;13.260;2023-03-04T07:01:11;14.13;;;4.10;;
19193;SDS011;9729;52.296;13.260;2023-03-04T07:03:38;12.53;;;3.43;;
19193;SDS011;9729;52.296;13.260;2023-03-04T07:06:07;16.00;;;3.40;;
19193;SDS011;9729;52.296;13.260;2023-03-04T07:08:34;15.07;;;4.40;;
19193;SDS011;9729;52.296;13.260;2023-03-04T07:11:01;15.67;;;4.70;;
19193;SDS011;9729;52.296;13.260;2023-03-04T07:13:27;16.83;;;4.93;;
19193;SDS011;9729;52.296;13.260;2023-03-04T07:15:54;22.80;;;4.43;;
19193;SDS011;9729;52.296;13.260;2023-03-04T07:18:22;17.27;;;4.20;;
19193;SDS011;9729;52.296;13.260;2023-03-04T07:20:50;18.03;;;4.53;;
19193;SDS011;9729;52.296;13.260;2023-03-04T07:23:17;17.63;;;5.17;;
19193;SDS011;9729;52.296;13.260;2023-03-04T07:25:43;11.50;;;4.80;;
19193;SDS011;9729;52.296;13.260;2023-03-04T07:28:11;11.63;;;4.77;;
19193;SDS011;9729;52.296;13.260;2023-03-04T07:30:37;21.73;;;4.93;;
19193;SDS011;9729;52.296;13.260;2023-03-04T07:33:04;17.27;;;5.53;;
19193;SDS011;9729;52.296;13.260;2023-03-04T07:35:32;14.50;;;6.43;;
19193;SDS011;9729;52.296;13.260;2023-03-04T07:37:58;17.33;;;5.20;;
19193;SDS011;9729;52.296;13.260;2023-03-04T07:40:25;19.93;;;4.87;;
19193;SDS011;9729;52.296;13.260;2023-03-04T07:42:51;29.77;;;10.13;;
19193;SDS011;9729;52.296;13.260;2023-03-04T07:45:19;27.67;;;8.53;;
19193;SDS011;9729;52.296;13.260;2023-03-04T07:47:46;19.80;;;3.90;;
19193;SDS011;9729;52.296;13.260;2023-03-04T07:52:45;22.37;;;6.70;;
19193;SDS011;9729;52.296;13.260;2023-03-04T07:55:15;18.27;;;7.30;;
19193;SDS011;9729;52.296;13.260;2023-03-04T07:57:43;22.97;;;8.80;;
19193;SDS011;9729;52.296;13.260;2023-03-04T08:00:11;22.03;;;7.67;;
19193;SDS011;9729;52.296;13.260;2023-03-04T08:02:39;13.30;;;3.67;;
19193;SDS011;9729;52.296;13.260;2023-03-04T08:05:06;11.67;;;3.93;;
19193;SDS011;9729;52.296;13.260;2023-03-04T08:07:34;9.00;;;2.93;;
19193;SDS011;9729;52.296;13.260;2023-03-04T08:10:02;13.70;;;4.13;;
19193;SDS011;9729;52.296;13.260;2023-03-04T08:12:29;12.53;;;4.00;;
19193;SDS011;9729;52.296;13.260;2023-03-04T08:14:56;12.20;;;3.93;;
19193;SDS011;9729;52.296;13.260;2023-03-04T08:17:23;7.87;;;3.30;;
19193;SDS011;9729;52.296;13.260;2023-03-04T08:19:49;14.23;;;4.57;;
19193;SDS011;9729;52.296;13.260;2023-03-04T08:22:16;15.20;;;3.60;;
19193;SDS011;9729;52.296;13.260;2023-03-04T08:24:42;14.43;;;4.50;;
19193;SDS011;9729;52.296;13.260;2023-03-04T08:27:10;13.17;;;3.50;;
19193;SDS011;9729;52.296;13.260;2023-03-04T08:29:37;14.53;;;3.47;;
19193;SDS011;9729;52.296;13.260;2023-03-04T08:32:04;9.90;;;3.63;;
19193;SDS011;9729;52.296;13.260;2023-03-04T08:34:30;11.40;;;3.43;;
19193;SDS011;9729;52.296;13.260;2023-03-04T08:36:57;14.73;;;4.80;;
19193;SDS011;9729;52.296;13.260;2023-03-04T08:39:23;14.10;;;3.70;;
19193;SDS011;9729;52.296;13.260;2023-03-04T08:41:50;10.07;;;4.33;;
19193;SDS011;9729;52.296;13.260;2023-03-04T08:44:18;8.53;;;3.73;;
19193;SDS011;9729;52.296;13.260;2023-03-04T08:46:44;15.73;;;3.80;;
19193;SDS011;9729;52.296;13.260;2023-03-04T08:49:11;10.90;;;4.70;;
19193;SDS011;9729;52.296;13.260;2023-03-04T08:51:38;10.03;;;3.80;;
19193;SDS011;9729;52.296;13.260;2023-03-04T08:54:06;7.03;;;3.03;;
19193;SDS011;9729;52.296;13.260;2023-03-04T08:56:33;11.07;;;3.87;;
19193;SDS011;9729;52.296;13.260;2023-03-04T08:58:59;12.40;;;3.30;;
19193;SDS011;9729;52.296;13.260;2023-03-04T09:01:27;15.30;;;3.70;;
19193;SDS011;9729;52.296;13.260;2023-03-04T09:03:55;16.57;;;4.30;;
19193;SDS011;9729;52.296;13.260;2023-03-04T09:06:21;11.93;;;3.40;;
19193;SDS011;9729;52.296;13.260;2023-03-04T09:08:47;8.53;;;3.40;;
19193;SDS011;9729;52.296;13.260;2023-03-04T09:11:14;6.53;;;2.90;;
19193;SDS011;9729;52.296;13.260;2023-03-04T09:13:41;7.37;;;2.53;;
19193;SDS011;9729;52.296;13.260;2023-03-04T09:16:09;15.50;;;4.13;;
19193;SDS011;9729;52.296;13.260;2023-03-04T09:18:40;8.03;;;3.17;;
19193;SDS011;9729;52.296;13.260;2023-03-04T09:21:08;10.67;;;3.50;;
19193;SDS011;9729;52.296;13.260;2023-03-04T09:23:35;10.03;;;3.70;;
19193;SDS011;9729;52.296;13.260;2023-03-04T09:26:11;10.90;;;4.10;;
19193;SDS011;9729;52.296;13.260;2023-03-04T09:28:39;10.27;;;3.00;;
19193;SDS011;9729;52.296;13.260;2023-03-04T09:31:09;9.53;;;3.77;;
19193;SDS011;9729;52.296;13.260;2023-03-04T09:33:36;10.43;;;2.97;;
19193;SDS011;9729;52.296;13.260;2023-03-04T09:36:04;14.40;;;3.63;;
19193;SDS011;9729;52.296;13.260;2023-03-04T09:38:35;3.73;;;2.83;;
19193;SDS011;9729;52.296;13.260;2023-03-04T09:41:03;11.27;;;2.77;;
19193;SDS011;9729;52.296;13.260;2023-03-04T09:43:31;9.87;;;2.57;;
19193;SDS011;9729;52.296;13.260;2023-03-04T09:46:02;8.20;;;3.00;;
19193;SDS011;9729;52.296;13.260;2023-03-04T09:48:32;10.60;;;3.60;;
19193;SDS011;9729;52.296;13.260;2023-03-04T09:51:13;10.07;;;2.67;;
19193;SDS011;9729;52.296;13.260;2023-03-04T09:53:45;18.00;;;3.50;;
19193;SDS011;9729;52.296;13.260;2023-03-04T09:56:15;13.57;;;2.93;;
19193;SDS011;9729;52.296;13.260;2023-03-04T09:58:44;8.87;;;2.73;;
19193;SDS011;9729;52.296;13.260;2023-03-04T10:01:16;12.60;;;3.30;;
19193;SDS011;9729;52.296;13.260;2023-03-04T10:03:48;17.37;;;3.77;;
19193;SDS011;9729;52.296;13.260;2023-03-04T10:06:18;12.83;;;2.80;;
19193;SDS011;9729;52.296;13.260;2023-03-04T10:08:50;8.03;;;3.27;;
19193;SDS011;9729;52.296;13.260;2023-03-04T10:11:23;12.93;;;3.50;;
19193;SDS011;9729;52.296;13.260;2023-03-04T10:14:07;13.30;;;3.40;;
19193;SDS011;9729;52.296;13.260;2023-03-04T10:16:41;10.57;;;2.90;;
19193;SDS011;9729;52.296;13.260;2023-03-04T10:22:14;13.10;;;2.93;;
19193;SDS011;9729;52.296;13.260;2023-03-04T10:24:42;15.47;;;3.10;;
19193;SDS011;9729;52.296;13.260;2023-03-04T10:27:11;13.47;;;2.90;;
19193;SDS011;9729;52.296;13.260;2023-03-04T10:29:40;6.17;;;2.90;;
19193;SDS011;9729;52.296;13.260;2023-03-04T10:32:07;12.20;;;3.50;;
19193;SDS011;9729;52.296;13.260;2023-03-04T10:34:37;10.40;;;2.20;;
19193;SDS011;9729;52.296;13.260;2023-03-04T10:37:05;5.60;;;2.60;;
19193;SDS011;9729;52.296;13.260;2023-03-04T10:39:35;10.07;;;2.93;;
19193;SDS011;9729;52.296;13.260;2023-03-04T10:42:08;8.70;;;2.90;;
19193;SDS011;9729;52.296;13.260;2023-03-04T10:44:50;9.17;;;3.67;;
19193;SDS011;9729;52.296;13.260;2023-03-04T10:47:17;10.83;;;3.10;;
19193;SDS011;9729;52.296;13.260;2023-03-04T10:49:48;9.70;;;2.87;;
19193;SDS011;9729;52.296;13.260;2023-03-04T10:52:18;12.93;;;3.03;;
19193;SDS011;9729;52.296;13.260;2023-03-04T10:54:52;9.93;;;2.67;;
19193;SDS011;9729;52.296;13.260;2023-03-04T10:57:20;17.17;;;3.63;;
19193;SDS011;9729;52.296;13.260;2023-03-04T10:59:48;10.30;;;2.70;;
19193;SDS011;9729;52.296;13.260;2023-03-04T11:02:22;16.20;;;3.27;;
19193;SDS011;9729;52.296;13.260;2023-03-04T11:04:52;9.77;;;2.93;;
19193;SDS011;9729;52.296;13.260;2023-03-04T11:07:21;11.47;;;2.93;;
19193;SDS011;9729;52.296;13.260;2023-03-04T11:09:48;14.47;;;3.77;;
19193;SDS011;9729;52.296;13.260;2023-03-04T11:12:16;16.90;;;3.73;;
19193;SDS011;9729;52.296;13.260;2023-03-04T11:14:46;14.63;;;3.00;;
19193;SDS011;9729;52.296;13.260;2023-03-04T11:17:18;16.87;;;3.63;;
19193;SDS011;9729;52.296;13.260;2023-03-04T11:19:47;13.83;;;2.17;;
19193;SDS011;9729;52.296;13.260;2023-03-04T11:22:16;15.80;;;2.97;;
19193;SDS011;9729;52.296;13.260;2023-03-04T11:24:46;15.93;;;3.77;;
19193;SDS011;9729;52.296;13.260;2023-03-04T11:27:23;18.23;;;3.90;;
19193;SDS011;9729;52.296;13.260;2023-03-04T11:29:56;22.20;;;3.33;;
19193;SDS011;9729;52.296;13.260;2023-03-04T11:32:30;16.00;;;4.13;;
19193;SDS011;9729;52.296;13.260;2023-03-04T11:35:02;27.93;;;3.10;;
19193;SDS011;9729;52.296;13.260;2023-03-04T11:37:33;16.97;;;3.80;;
19193;SDS011;9729;52.296;13.260;2023-03-04T11:40:02;30.67;;;4.90;;
19193;SDS011;9729;52.296;13.260;2023-03-04T11:42:32;20.10;;;4.50;;
19193;SDS011;9729;52.296;13.260;2023-03-04T11:45:02;11.83;;;3.53;;
19193;SDS011;9729;52.296;13.260;2023-03-04T11:47:35;18.03;;;3.20;;
19193;SDS011;9729;52.296;13.260;2023-03-04T11:50:14;21.23;;;3.90;;
19193;SDS011;9729;52.296;13.260;2023-03-04T11:52:54;30.47;;;5.30;;
19193;SDS011;9729;52.296;13.260;2023-03-04T11:55:32;14.20;;;3.00;;
19193;SDS011;9729;52.296;13.260;2023-03-04T11:58:12;16.43;;;3.40;;
19193;SDS011;9729;52.296;13.260;2023-03-04T12:01:00;25.87;;;3.90;;
19193;SDS011;9729;52.296;13.260;2023-03-04T12:03:40;22.10;;;3.73;;
19193;SDS011;9729;52.296;13.260;2023-03-04T12:06:11;31.20;;;4.57;;
19193;SDS011;9729;52.296;13.260;2023-03-04T12:08:46;22.53;;;4.50;;
19193;SDS011;9729;52.296;13.260;2023-03-04T12:11:18;23.93;;;5.17;;
19193;SDS011;9729;52.296;13.260;2023-03-04T12:14:02;27.23;;;5.67;;
19193;SDS011;9729;52.296;13.260;2023-03-04T12:16:49;23.17;;;3.53;;
19193;SDS011;9729;52.296;13.260;2023-03-04T12:19:26;25.83;;;5.10;;
19193;SDS011;9729;52.296;13.260;2023-03-04T12:22:05;26.00;;;3.17;;
19193;SDS011;9729;52.296;13.260;2023-03-04T12:24:45;19.50;;;4.13;;
19193;SDS011;9729;52.296;13.260;2023-03-04T12:27:27;24.83;;;3.80;;
19193;SDS011;9729;52.296;13.260;2023-03-04T12:30:00;20.50;;;3.70;;
19193;SDS011;9729;52.296;13.260;2023-03-04T12:32:32;17.33;;;3.80;;
19193;SDS011;9729;52.296;13.260;2023-03-04T12:35:07;26.70;;;3.87;;
19193;SDS011;9729;52.296;13.260;2023-03-04T12:37:46;33.63;;;5.33;;
19193;SDS011;9729;52.296;13.260;2023-03-04T12:40:31;11.07;;;3.27;;
19193;SDS011;9729;52.296;13.260;2023-03-04T12:43:06;23.03;;;4.13;;
19193;SDS011;9729;52.296;13.260;2023-03-04T12:45:45;12.57;;;3.27;;
19193;SDS011;9729;52.296;13.260;2023-03-04T12:48:18;20.10;;;3.53;;
19193;SDS011;9729;52.296;13.260;2023-03-04T12:50:53;16.00;;;3.67;;
19193;SDS011;9729;52.296;13.260;2023-03-04T12:53:26;15.20;;;3.73;;
19193;SDS011;9729;52.296;13.260;2023-03-04T12:55:58;16.77;;;3.27;;
19193;SDS011;9729;52.296;13.260;2023-03-04T12:58:27;23.37;;;3.83;;
19193;SDS011;9729;52.296;13.260;2023-03-04T13:00:58;13.53;;;2.67;;
19193;SDS011;9729;52.296;13.260;2023-03-04T13:03:32;26.33;;;3.60;;
19193;SDS011;9729;52.296;13.260;2023-03-04T13:06:09;18.07;;;2.60;;
19193;SDS011;9729;52.296;13.260;2023-03-04T13:08:45;16.57;;;2.60;;
19193;SDS011;9729;52.296;13.260;2023-03-04T13:14:27;12.67;;;2.53;;
19193;SDS011;9729;52.296;13.260;2023-03-04T13:17:17;12.00;;;2.67;;
19193;SDS011;9729;52.296;13.260;2023-03-04T13:20:12;15.83;;;3.53;;
19193;SDS011;9729;52.296;13.260;2023-03-04T13:22:45;21.53;;;4.27;;
19193;SDS011;9729;52.296;13.260;2023-03-04T13:25:35;21.10;;;4.00;;
19193;SDS011;9729;52.296;13.260;2023-03-04T13:28:23;24.80;;;3.40;;
19193;SDS011;9729;52.296;13.260;2023-03-04T13:33:58;20.07;;;3.13;;
19193;SDS011;9729;52.296;13.260;2023-03-04T13:36:30;21.07;;;3.57;;
19193;SDS011;9729;52.296;13.260;2023-03-04T13:39:26;12.97;;;3.40;;
19193;SDS011;9729;52.296;13.260;2023-03-04T13:41:56;17.53;;;2.80;;
19193;SDS011;9729;52.296;13.260;2023-03-04T13:47:40;17.83;;;4.77;;
19193;SDS011;9729;52.296;13.260;2023-03-04T13:52:59;22.43;;;3.00;;
19193;SDS011;9729;52.296;13.260;2023-03-04T13:55:34;14.23;;;2.80;;
19193;SDS011;9729;52.296;13.260;2023-03-04T13:58:12;10.67;;;2.77;;
19193;SDS011;9729;52.296;13.260;2023-03-04T14:00:44;15.23;;;3.43;;
19193;SDS011;9729;52.296;13.260;2023-03-04T14:03:13;13.30;;;2.90;;
19193;SDS011;9729;52.296;13.260;2023-03-04T14:05:41;7.90;;;2.13;;
19193;SDS011;9729;52.296;13.260;2023-03-04T14:08:17;18.23;;;2.77;;
19193;SDS011;9729;52.296;13.260;2023-03-04T14:10:43;13.57;;;3.20;;
19193;SDS011;9729;52.296;13.260;2023-03-04T14:13:10;21.30;;;3.67;;
19193;SDS011;9729;52.296;13.260;2023-03-04T14:15:36;14.47;;;3.20;;
19193;SDS011;9729;52.296;13.260;2023-03-04T14:18:03;18.53;;;3.47;;
19193;SDS011;9729;52.296;13.260;2023-03-04T14:20:31;8.47;;;3.20;;
19193;SDS011;9729;52.296;13.260;2023-03-04T14:23:00;18.03;;;4.60;;
19193;SDS011;9729;52.296;13.260;2023-03-04T14:25:28;17.60;;;3.50;;
19193;SDS011;9729;52.296;13.260;2023-03-04T14:28:02;25.83;;;4.10;;
19193;SDS011;9729;52.296;13.260;2023-03-04T14:30:29;15.07;;;3.23;;
19193;SDS011;9729;52.296;13.260;2023-03-04T14:32:57;26.90;;;3.50;;
19193;SDS011;9729;52.296;13.260;2023-03-04T14:35:24;21.40;;;4.90;;
19193;SDS011;9729;52.296;13.260;2023-03-04T14:37:53;9.23;;;3.40;;
19193;SDS011;9729;52.296;13.260;2023-03-04T14:40:25;18.20;;;4.20;;
19193;SDS011;9729;52.296;13.260;2023-03-04T14:42:53;15.13;;;3.27;;
19193;SDS011;9729;52.296;13.260;2023-03-04T14:45:22;18.57;;;4.13;;
19193;SDS011;9729;52.296;13.260;2023-03-04T14:47:49;18.00;;;4.50;;
19193;SDS011;9729;52.296;13.260;2023-03-04T14:50:19;14.30;;;3.70;;
19193;SDS011;9729;52.296;13.260;2023-03-04T14:52:46;18.13;;;3.67;;
19193;SDS011;9729;52.296;13.260;2023-03-04T14:55:18;28.23;;;3.33;;
19193;SDS011;9729;52.296;13.260;2023-03-04T14:57:48;13.77;;;3.40;;
19193;SDS011;9729;52.296;13.260;2023-03-04T15:00:24;12.87;;;2.80;;
19193;SDS011;9729;52.296;13.260;2023-03-04T15:02:53;19.37;;;3.70;;